createdAt,value
2023-05-20T00:00:57.264Z,9.13
2023-05-20T00:03:25.536Z,7.50
2023-05-20T00:05:55.102Z,7.63
2023-05-20T00:08:23.134Z,8.73
2023-05-20T00:10:51.170Z,7.63
2023-05-20T00:13:19.208Z,8.20
2023-05-20T00:15:47.182Z,7.77
2023-05-20T00:18:15.310Z,8.43
2023-05-20T00:20:43.553Z,7.43
2023-05-20T00:23:12.925Z,8.10
2023-05-20T00:25:41.029Z,6.90
2023-05-20T00:28:09.056Z,6.90
2023-05-20T00:30:37.469Z,6.80
2023-05-20T00:33:05.587Z,7.63
2023-05-20T00:35:34.214Z,7.93
2023-05-20T00:38:03.076Z,7.60
2023-05-20T00:40:32.549Z,6.87
2023-05-20T00:43:00.599Z,7.60
2023-05-20T00:45:28.741Z,7.20
2023-05-20T00:47:59.745Z,6.87
2023-05-20T00:50:28.414Z,8.30
2023-05-20T00:52:56.725Z,7.60
2023-05-20T00:55:25.032Z,7.73
2023-05-20T00:57:55.231Z,8.20
2023-05-20T01:00:23.472Z,7.93
2023-05-20T01:02:51.675Z,8.90
2023-05-20T01:05:20.483Z,8.00
2023-05-20T01:07:48.821Z,8.10
2023-05-20T01:10:16.851Z,7.90
2023-05-20T01:12:48.680Z,8.77
2023-05-20T01:15:19.498Z,8.17
2023-05-20T01:17:52.393Z,7.53
2023-05-20T01:20:22.092Z,7.90
2023-05-20T01:22:54.940Z,7.93
2023-05-20T01:25:23.119Z,7.90
2023-05-20T01:27:52.785Z,9.20
2023-05-20T01:30:22.026Z,7.57
2023-05-20T01:32:52.905Z,7.73
2023-05-20T01:35:23.080Z,7.90
2023-05-20T01:37:54.054Z,7.40
2023-05-20T01:40:24.555Z,7.13
2023-05-20T01:42:55.210Z,6.83
2023-05-20T01:45:25.105Z,8.57
2023-05-20T01:47:53.259Z,8.10
2023-05-20T01:50:21.322Z,7.07
2023-05-20T01:52:49.452Z,8.63
2023-05-20T01:55:18.899Z,8.50
2023-05-20T01:57:47.262Z,8.43
2023-05-20T02:00:15.788Z,8.17
2023-05-20T02:02:46.111Z,7.70
2023-05-20T02:05:14.905Z,7.90
2023-05-20T02:07:44.571Z,7.90
2023-05-20T02:10:12.857Z,8.30
2023-05-20T02:12:42.228Z,9.03
2023-05-20T02:15:11.171Z,7.60
2023-05-20T02:17:39.800Z,7.50
2023-05-20T02:20:10.396Z,8.50
2023-05-20T02:22:38.497Z,8.80
2023-05-20T02:25:08.408Z,8.40
2023-05-20T02:27:37.925Z,7.70
2023-05-20T02:30:09.064Z,8.20
2023-05-20T02:32:37.130Z,8.53
2023-05-20T02:35:05.678Z,8.30
2023-05-20T02:37:34.449Z,8.43
2023-05-20T02:40:02.787Z,8.40
2023-05-20T02:42:31.479Z,7.80
2023-05-20T02:44:59.601Z,7.83
2023-05-20T02:47:29.295Z,8.20
2023-05-20T02:49:57.540Z,8.00
2023-05-20T02:52:26.256Z,8.10
2023-05-20T02:54:54.493Z,7.53
2023-05-20T02:57:22.632Z,8.20
2023-05-20T02:59:50.771Z,8.10
2023-05-20T03:02:18.853Z,7.60
2023-05-20T03:04:48.504Z,8.30
2023-05-20T03:07:19.703Z,8.60
2023-05-20T03:09:47.885Z,8.70
2023-05-20T03:12:15.957Z,8.40
2023-05-20T03:14:43.953Z,8.63
2023-05-20T03:17:12.492Z,8.10
2023-05-20T03:19:41.396Z,8.40
2023-05-20T03:22:10.969Z,8.13
2023-05-20T03:24:39.026Z,9.23
2023-05-20T03:27:07.250Z,8.10
2023-05-20T03:29:36.240Z,7.83
2023-05-20T03:32:04.307Z,8.67
2023-05-20T03:34:32.370Z,8.03
2023-05-20T03:37:01.888Z,8.87
2023-05-20T03:39:32.141Z,7.90
2023-05-20T03:42:01.457Z,8.90
2023-05-20T03:44:29.468Z,9.00
2023-05-20T03:46:57.618Z,8.20
2023-05-20T03:49:25.939Z,8.03
2023-05-20T03:51:53.950Z,8.30
2023-05-20T03:54:22.241Z,8.70
2023-05-20T03:56:54.824Z,8.70
2023-05-20T03:59:23.390Z,8.60
2023-05-20T04:01:51.402Z,9.00
2023-05-20T04:04:19.524Z,8.90
2023-05-20T04:06:48.032Z,8.70
2023-05-20T04:09:16.146Z,8.10
2023-05-20T04:11:44.271Z,8.90
2023-05-20T04:14:13.600Z,8.07
2023-05-20T04:16:41.633Z,8.50
2023-05-20T04:19:09.638Z,9.10
2023-05-20T04:21:37.756Z,8.60
2023-05-20T04:24:07.485Z,8.50
2023-05-20T04:26:35.491Z,7.90
2023-05-20T04:29:04.211Z,8.80
2023-05-20T04:31:35.453Z,8.67
2023-05-20T04:34:04.354Z,8.87
2023-05-20T04:36:32.493Z,8.70
2023-05-20T04:39:03.660Z,8.60
2023-05-20T04:41:31.884Z,8.30
2023-05-20T04:44:01.515Z,8.27
2023-05-20T04:46:29.998Z,8.10
2023-05-20T04:49:00.595Z,8.40
2023-05-20T04:51:29.461Z,8.67
2023-05-20T04:53:59.020Z,8.40
2023-05-20T04:56:29.650Z,8.83
2023-05-20T04:58:58.764Z,9.00
2023-05-20T05:01:27.669Z,8.40
2023-05-20T05:03:55.785Z,8.80
2023-05-20T05:06:25.583Z,9.47
2023-05-20T05:08:53.717Z,8.97
2023-05-20T05:11:22.180Z,9.00
2023-05-20T05:13:50.181Z,9.03
2023-05-20T05:16:18.971Z,9.40
2023-05-20T05:18:47.485Z,8.73
2023-05-20T05:21:15.713Z,9.57
2023-05-20T05:23:45.245Z,9.60
2023-05-20T05:26:13.494Z,9.20
2023-05-20T05:28:43.198Z,9.50
2023-05-20T05:31:11.343Z,9.30
2023-05-20T05:33:39.349Z,9.50
2023-05-20T05:36:07.705Z,9.67
2023-05-20T05:38:36.302Z,9.37
2023-05-20T05:41:05.989Z,9.80
2023-05-20T05:43:36.439Z,9.43
2023-05-20T05:46:05.173Z,9.07
2023-05-20T05:48:34.022Z,9.60
2023-05-20T05:51:02.209Z,9.37
2023-05-20T05:53:30.282Z,9.20
2023-05-20T05:55:58.271Z,8.67
2023-05-20T05:58:27.953Z,9.23
2023-05-20T06:00:57.597Z,9.40
2023-05-20T06:03:25.924Z,9.70
2023-05-20T06:05:54.718Z,9.00
2023-05-20T06:08:22.815Z,8.93
2023-05-20T06:10:51.336Z,8.60
2023-05-20T06:13:19.386Z,9.73
2023-05-20T06:15:50.915Z,9.47
2023-05-20T06:18:19.086Z,9.93
2023-05-20T06:20:47.902Z,9.07
2023-05-20T06:23:16.204Z,10.07
2023-05-20T06:25:58.404Z,9.20
2023-05-20T06:28:26.690Z,9.60
2023-05-20T06:30:57.287Z,9.17
2023-05-20T06:33:28.489Z,9.40
2023-05-20T06:36:01.685Z,9.00
2023-05-20T06:38:30.604Z,9.17
2023-05-20T06:40:59.743Z,9.60
2023-05-20T06:43:27.944Z,9.50
2023-05-20T06:46:07.022Z,9.00
2023-05-20T06:48:38.490Z,8.73
2023-05-20T06:51:09.385Z,9.20
2023-05-20T06:53:37.704Z,9.77
2023-05-20T06:56:06.058Z,9.00
2023-05-20T06:58:34.547Z,9.13
2023-05-20T07:01:02.520Z,10.13
2023-05-20T07:03:32.674Z,8.73
2023-05-20T07:06:00.690Z,9.50
2023-05-20T07:08:30.122Z,9.47
2023-05-20T07:10:58.694Z,9.10
2023-05-20T07:13:27.331Z,8.70
2023-05-20T07:15:55.760Z,9.60
2023-05-20T07:18:23.781Z,9.23
2023-05-20T07:20:56.865Z,8.40
2023-05-20T07:23:39.714Z,8.30
2023-05-20T07:26:07.804Z,8.90
2023-05-20T07:28:36.647Z,8.30
2023-05-20T07:31:05.398Z,9.40
2023-05-20T07:33:36.600Z,8.80
2023-05-20T07:36:08.016Z,9.20
2023-05-20T07:38:41.010Z,8.13
2023-05-20T07:41:11.511Z,9.13
2023-05-20T07:43:39.496Z,8.90
2023-05-20T07:46:08.464Z,8.50
2023-05-20T07:48:36.990Z,8.17
2023-05-20T07:51:07.247Z,8.90
2023-05-20T07:53:35.590Z,7.80
2023-05-20T07:56:03.894Z,8.50
2023-05-20T07:58:32.892Z,8.60
2023-05-20T08:01:01.257Z,8.50
2023-05-20T08:03:29.412Z,8.83
2023-05-20T08:06:07.089Z,7.93
2023-05-20T08:08:36.354Z,8.67
2023-05-20T08:11:10.511Z,8.43
2023-05-20T08:13:40.306Z,8.63
2023-05-20T08:16:09.224Z,7.97
2023-05-20T08:18:38.433Z,8.30
2023-05-20T08:21:08.918Z,8.43
2023-05-20T08:23:40.426Z,8.73
2023-05-20T08:26:09.300Z,7.93
2023-05-20T08:28:41.318Z,7.80
2023-05-20T08:31:09.780Z,7.63
2023-05-20T08:33:38.010Z,7.73
2023-05-20T08:36:08.404Z,7.70
2023-05-20T08:38:36.580Z,8.20
2023-05-20T08:41:04.762Z,7.87
2023-05-20T08:43:33.585Z,7.97
2023-05-20T08:46:06.605Z,8.00
2023-05-20T08:48:37.115Z,8.30
2023-05-20T08:51:09.712Z,7.80
2023-05-20T08:53:37.816Z,7.70
2023-05-20T08:56:06.500Z,8.50
2023-05-20T08:58:34.485Z,7.90
2023-05-20T09:01:03.101Z,8.60
2023-05-20T09:03:32.182Z,7.50
2023-05-20T09:06:07.555Z,7.47
2023-05-20T09:08:36.140Z,7.73
2023-05-20T09:11:04.565Z,8.07
2023-05-20T09:13:34.030Z,7.67
2023-05-20T09:16:03.654Z,8.00
2023-05-20T09:18:32.122Z,7.93
2023-05-20T09:21:05.798Z,8.00
2023-05-20T09:23:38.827Z,7.97
2023-05-20T09:26:07.801Z,8.23
2023-05-20T09:28:38.277Z,7.53
2023-05-20T09:31:08.817Z,8.53
2023-05-20T09:33:38.417Z,8.30
2023-05-20T09:36:09.592Z,8.00
2023-05-20T09:38:40.534Z,8.07
2023-05-20T09:41:11.444Z,9.40
2023-05-20T09:43:40.923Z,8.20
2023-05-20T09:46:09.511Z,7.80
2023-05-20T09:48:38.130Z,8.20
2023-05-20T09:51:08.060Z,8.20
2023-05-20T09:53:37.012Z,8.10
2023-05-20T09:56:07.057Z,8.50
2023-05-20T09:58:37.329Z,8.57
2023-05-20T10:01:05.398Z,8.37
2023-05-20T10:03:34.120Z,8.63
2023-05-20T10:06:20.376Z,8.57
2023-05-20T10:09:05.849Z,8.50
2023-05-20T10:11:46.566Z,8.40
2023-05-20T10:14:34.506Z,7.93
2023-05-20T10:17:12.096Z,8.20
2023-05-20T10:19:40.421Z,8.10
2023-05-20T10:22:09.726Z,8.70
2023-05-20T10:24:40.898Z,8.70
2023-05-20T10:27:14.218Z,8.70
2023-05-20T10:32:25.891Z,8.60
2023-05-20T10:34:55.598Z,8.23
2023-05-20T10:37:28.929Z,7.83
2023-05-20T10:40:11.497Z,8.60
2023-05-20T10:42:41.630Z,8.03
2023-05-20T10:45:10.832Z,8.00
2023-05-20T10:47:43.286Z,8.27
2023-05-20T10:50:27.581Z,7.83
2023-05-20T10:52:57.235Z,7.60
2023-05-20T10:55:25.385Z,7.83
2023-05-20T10:57:54.813Z,7.77
2023-05-20T11:00:22.864Z,8.60
2023-05-20T11:02:51.742Z,6.90
2023-05-20T11:05:21.852Z,7.90
2023-05-20T11:07:50.003Z,7.70
2023-05-20T11:10:18.218Z,8.17
2023-05-20T11:12:46.604Z,8.30
2023-05-20T11:15:16.801Z,8.67
2023-05-20T11:17:54.239Z,8.47
2023-05-20T11:20:22.772Z,8.17
2023-05-20T11:22:51.365Z,8.20
2023-05-20T11:25:19.941Z,7.70
2023-05-20T11:27:48.123Z,8.70
2023-05-20T11:30:18.632Z,8.73
2023-05-20T11:32:57.402Z,8.90
2023-05-20T11:35:26.248Z,7.60
2023-05-20T11:38:04.334Z,8.13
2023-05-20T11:40:42.733Z,8.23
2023-05-20T11:43:17.565Z,8.00
2023-05-20T11:45:48.494Z,9.10
2023-05-20T11:48:16.605Z,8.73
2023-05-20T11:50:46.266Z,9.20
2023-05-20T11:53:17.770Z,8.47
2023-05-20T11:55:47.919Z,9.40
2023-05-20T11:58:21.115Z,7.90
2023-05-20T12:00:56.754Z,8.57
2023-05-20T12:03:31.865Z,8.20
2023-05-20T12:06:02.873Z,8.63
2023-05-20T12:08:31.208Z,8.10
2023-05-20T12:10:59.335Z,8.13
2023-05-20T12:13:27.313Z,8.50
2023-05-20T12:15:56.817Z,8.70
2023-05-20T12:18:24.833Z,8.67
2023-05-20T12:20:52.894Z,8.37
2023-05-20T12:23:21.705Z,8.80
2023-05-20T12:25:50.038Z,8.67
2023-05-20T12:28:18.668Z,8.47
2023-05-20T12:30:46.658Z,8.70
2023-05-20T12:33:16.342Z,8.20
2023-05-20T12:35:46.083Z,8.10
2023-05-20T12:38:14.160Z,8.67
2023-05-20T12:40:42.270Z,8.57
2023-05-20T12:43:10.462Z,8.10
2023-05-20T12:45:38.938Z,7.97
2023-05-20T12:48:08.166Z,8.60
2023-05-20T12:50:37.902Z,8.00
2023-05-20T12:53:06.167Z,7.53
2023-05-20T12:55:34.959Z,7.67
2023-05-20T12:58:03.084Z,8.30
2023-05-20T13:00:31.343Z,8.40
2023-05-20T13:02:59.722Z,8.10
2023-05-20T13:05:28.349Z,8.00
2023-05-20T13:07:57.713Z,7.60
2023-05-20T13:10:25.682Z,7.70
2023-05-20T13:12:54.484Z,7.57
2023-05-20T13:15:22.426Z,8.00
2023-05-20T13:17:50.816Z,8.47
2023-05-20T13:20:19.981Z,8.40
2023-05-20T13:22:50.129Z,7.60
2023-05-20T13:25:19.664Z,9.20
2023-05-20T13:27:47.790Z,8.30
2023-05-20T13:30:15.960Z,7.97
2023-05-20T13:32:44.108Z,8.83
2023-05-20T13:35:13.972Z,8.97
2023-05-20T13:37:41.956Z,8.17
2023-05-20T13:40:11.116Z,7.83
2023-05-20T13:42:40.505Z,8.20
2023-05-20T13:45:09.515Z,8.77
2023-05-20T13:47:38.017Z,8.27
2023-05-20T13:50:07.399Z,8.00
2023-05-20T13:52:35.540Z,7.50
2023-05-20T13:55:03.992Z,7.00
2023-05-20T13:57:32.034Z,7.80
2023-05-20T14:00:01.369Z,7.77
2023-05-20T14:02:29.437Z,7.50
2023-05-20T14:04:57.407Z,7.40
2023-05-20T14:07:25.429Z,8.20
2023-05-20T14:09:53.514Z,7.30
2023-05-20T14:12:22.927Z,7.73
2023-05-20T14:14:51.235Z,7.30
2023-05-20T14:17:20.859Z,6.93
2023-05-20T14:19:48.907Z,6.93
2023-05-20T14:22:16.936Z,7.60
2023-05-20T14:24:45.793Z,7.67
2023-05-20T14:27:14.157Z,7.40
2023-05-20T14:29:42.167Z,7.57
2023-05-20T14:32:11.666Z,6.87
2023-05-20T14:34:41.183Z,7.10
2023-05-20T14:37:11.820Z,6.87
2023-05-20T14:39:39.896Z,6.83
2023-05-20T14:42:07.956Z,6.87
2023-05-20T14:44:35.921Z,7.13
2023-05-20T14:47:04.474Z,6.90
2023-05-20T14:49:32.788Z,6.57
2023-05-20T14:52:02.169Z,6.77
2023-05-20T14:54:30.198Z,6.50
2023-05-20T14:56:58.179Z,7.33
2023-05-20T14:59:26.310Z,6.93
2023-05-20T15:01:54.552Z,6.80
2023-05-20T15:04:22.544Z,6.13
2023-05-20T15:06:50.945Z,7.43
2023-05-20T15:09:20.909Z,6.50
2023-05-20T15:11:48.873Z,6.87
2023-05-20T15:14:17.060Z,6.87
2023-05-20T15:16:45.931Z,7.10
2023-05-20T15:19:14.440Z,7.90
2023-05-20T15:21:42.406Z,6.50
2023-05-20T15:24:10.394Z,6.20
2023-05-20T15:26:41.249Z,7.50
2023-05-20T15:29:09.393Z,7.30
2023-05-20T15:31:37.874Z,7.00
2023-05-20T15:34:05.911Z,7.00
2023-05-20T15:36:33.942Z,7.63
2023-05-20T15:39:01.920Z,7.10
2023-05-20T15:41:30.030Z,7.00
2023-05-20T15:43:59.320Z,6.97
2023-05-20T15:46:27.930Z,7.87
2023-05-20T15:48:56.834Z,7.13
2023-05-20T15:51:24.967Z,7.60
2023-05-20T15:53:52.931Z,7.00
2023-05-20T15:56:21.705Z,8.30
2023-05-20T15:58:49.869Z,7.40
2023-05-20T16:01:19.210Z,7.97
2023-05-20T16:03:47.231Z,7.20
2023-05-20T16:06:15.743Z,8.10
2023-05-20T16:08:43.733Z,7.90
2023-05-20T16:11:11.880Z,7.70
2023-05-20T16:13:39.896Z,7.97
2023-05-20T16:16:08.287Z,7.90
2023-05-20T16:18:37.778Z,7.87
2023-05-20T16:21:07.875Z,8.10
2023-05-20T16:23:36.015Z,8.40
2023-05-20T16:26:04.210Z,8.37
2023-05-20T16:28:32.316Z,7.60
2023-05-20T16:31:00.480Z,7.50
2023-05-20T16:33:28.589Z,7.83
2023-05-20T16:35:58.390Z,8.07
2023-05-20T16:38:27.146Z,7.20
2023-05-20T16:40:55.382Z,7.80
2023-05-20T16:43:23.402Z,7.63
2023-05-20T16:45:51.562Z,7.37
2023-05-20T16:48:20.165Z,7.57
2023-05-20T16:50:48.497Z,7.57
2023-05-20T16:53:18.346Z,7.40
2023-05-20T16:55:47.048Z,7.40
2023-05-20T16:58:15.126Z,8.07
2023-05-20T17:00:44.217Z,8.20
2023-05-20T17:03:12.360Z,7.43
2023-05-20T17:05:40.396Z,8.07
2023-05-20T17:08:08.334Z,8.07
2023-05-20T17:10:37.650Z,8.10
2023-05-20T17:13:05.826Z,8.43
2023-05-20T17:15:36.930Z,8.27
2023-05-20T17:18:05.077Z,7.60
2023-05-20T17:20:33.516Z,7.90
2023-05-20T17:23:01.764Z,7.87
2023-05-20T17:25:29.681Z,8.10
2023-05-20T17:28:00.188Z,9.37
2023-05-20T17:30:28.578Z,8.60
2023-05-20T17:32:57.443Z,8.80
2023-05-20T17:35:26.536Z,8.70
2023-05-20T17:37:54.975Z,8.87
2023-05-20T17:40:23.122Z,9.13
2023-05-20T17:42:51.121Z,9.10
2023-05-20T17:45:20.503Z,9.27
2023-05-20T17:47:49.155Z,9.40
2023-05-20T17:50:17.717Z,8.90
2023-05-20T17:52:46.648Z,10.23
2023-05-20T17:55:14.724Z,9.63
2023-05-20T17:57:42.772Z,9.10
2023-05-20T18:00:13.074Z,8.70
2023-05-20T18:02:48.171Z,10.03
2023-05-20T18:05:17.144Z,9.50
2023-05-20T18:07:45.598Z,9.60
2023-05-20T18:10:14.237Z,9.67
2023-05-20T18:12:42.697Z,9.80
2023-05-20T18:15:11.219Z,9.97
2023-05-20T18:17:40.585Z,10.33
2023-05-20T18:20:11.350Z,10.00
2023-05-20T18:22:45.039Z,9.90
2023-05-20T18:25:13.126Z,9.50
2023-05-20T18:27:42.220Z,10.27
2023-05-20T18:30:11.108Z,10.50
2023-05-20T18:32:39.306Z,10.37
2023-05-20T18:35:08.323Z,11.07
2023-05-20T18:37:37.671Z,10.20
2023-05-20T18:40:06.813Z,9.90
2023-05-20T18:42:34.936Z,9.43
2023-05-20T18:45:03.019Z,10.03
2023-05-20T18:47:31.280Z,11.13
2023-05-20T18:50:00.263Z,9.70
2023-05-20T18:52:28.460Z,10.20
2023-05-20T18:54:58.256Z,9.80
2023-05-20T18:57:26.517Z,10.10
2023-05-20T18:59:54.614Z,9.63
2023-05-20T19:02:23.002Z,10.60
2023-05-20T19:04:51.242Z,11.33
2023-05-20T19:07:19.508Z,10.40
2023-05-20T19:09:48.250Z,10.43
2023-05-20T19:12:19.279Z,9.80
2023-05-20T19:14:47.492Z,10.30
2023-05-20T19:17:16.073Z,9.87
2023-05-20T19:19:44.177Z,10.50
2023-05-20T19:22:12.281Z,10.90
2023-05-20T19:24:40.482Z,10.17
2023-05-20T19:27:08.747Z,10.90
2023-05-20T19:29:38.179Z,11.00
2023-05-20T19:32:07.098Z,11.20
2023-05-20T19:34:35.131Z,11.20
2023-05-20T19:37:03.204Z,10.07
2023-05-20T19:39:32.075Z,10.80
2023-05-20T19:42:00.108Z,10.33
2023-05-20T19:44:28.306Z,10.80
2023-05-20T19:46:57.805Z,11.83
2023-05-20T19:49:25.892Z,11.77
2023-05-20T19:51:53.850Z,10.00
2023-05-20T19:54:22.004Z,11.07
2023-05-20T19:56:50.053Z,11.10
2023-05-20T19:59:18.067Z,10.40
2023-05-20T20:01:46.206Z,9.93
2023-05-20T20:04:19.392Z,10.30
2023-05-20T20:06:48.280Z,10.93
2023-05-20T20:09:16.337Z,10.70
2023-05-20T20:11:44.425Z,11.43
2023-05-20T20:14:13.506Z,11.43
2023-05-20T20:16:41.792Z,11.37
2023-05-20T20:19:12.027Z,11.13
2023-05-20T20:21:42.963Z,10.87
2023-05-20T20:24:11.061Z,11.50
2023-05-20T20:26:39.138Z,10.37
2023-05-20T20:29:08.554Z,11.93
2023-05-20T20:31:37.831Z,11.70
2023-05-20T20:34:06.248Z,11.67
2023-05-20T20:36:35.390Z,11.23
2023-05-20T20:39:05.471Z,12.00
2023-05-20T20:41:34.825Z,10.77
2023-05-20T20:44:03.970Z,10.70
2023-05-20T20:46:32.049Z,11.17
2023-05-20T20:49:00.126Z,11.50
2023-05-20T20:51:28.184Z,9.60
2023-05-20T20:53:56.243Z,11.20
2023-05-20T20:56:25.661Z,11.20
2023-05-20T20:58:54.125Z,10.60
2023-05-20T21:01:22.204Z,11.50
2023-05-20T21:03:54.654Z,10.50
2023-05-20T21:06:23.081Z,10.67
2023-05-20T21:08:53.198Z,10.17
2023-05-20T21:11:22.410Z,10.20
2023-05-20T21:13:51.811Z,11.00
2023-05-20T21:16:19.975Z,10.70
2023-05-20T21:18:48.284Z,9.90
2023-05-20T21:21:20.464Z,10.67
2023-05-20T21:23:49.079Z,11.30
2023-05-20T21:26:17.283Z,10.90
2023-05-20T21:28:45.319Z,10.97
2023-05-20T21:31:15.284Z,10.10
2023-05-20T21:33:43.408Z,11.10
2023-05-20T21:36:11.607Z,10.90
2023-05-20T21:38:39.848Z,10.77
2023-05-20T21:41:09.128Z,11.80
2023-05-20T21:43:37.577Z,11.63
2023-05-20T21:46:06.089Z,10.97
2023-05-20T21:48:35.419Z,10.20
2023-05-20T21:51:03.979Z,11.03
2023-05-20T21:53:32.129Z,11.07
2023-05-20T21:56:00.160Z,10.80
2023-05-20T21:58:28.393Z,11.50
2023-05-20T22:00:56.451Z,12.00
2023-05-20T22:03:25.170Z,10.87
2023-05-20T22:05:55.479Z,11.93
2023-05-20T22:08:23.566Z,11.33
2023-05-20T22:10:51.951Z,11.80
2023-05-20T22:13:20.599Z,11.37
2023-05-20T22:15:48.745Z,11.63
2023-05-20T22:18:16.848Z,10.63
2023-05-20T22:20:44.878Z,11.23
2023-05-20T22:23:14.447Z,11.93
2023-05-20T22:25:42.850Z,10.93
2023-05-20T22:28:10.979Z,10.63
2023-05-20T22:30:39.429Z,10.43
2023-05-20T22:33:07.634Z,11.07
2023-05-20T22:35:36.345Z,11.00
2023-05-20T22:38:04.820Z,11.93
2023-05-20T22:40:34.752Z,11.70
2023-05-20T22:43:02.843Z,11.93
2023-05-20T22:45:31.001Z,12.37
2023-05-20T22:47:59.175Z,12.40
2023-05-20T22:50:27.778Z,11.40
2023-05-20T22:52:56.106Z,12.00
2023-05-20T22:55:24.419Z,12.47
2023-05-20T22:57:53.756Z,12.23
2023-05-20T23:00:21.842Z,12.57
2023-05-20T23:02:52.980Z,12.07
2023-05-20T23:05:21.761Z,12.17
2023-05-20T23:07:52.677Z,12.07
2023-05-20T23:10:21.413Z,11.67
2023-05-20T23:12:49.424Z,13.03
2023-05-20T23:15:19.208Z,12.30
2023-05-20T23:17:47.806Z,11.70
2023-05-20T23:20:18.948Z,11.67
2023-05-20T23:22:47.516Z,12.00
2023-05-20T23:25:15.873Z,12.37
2023-05-20T23:27:43.882Z,12.23
2023-05-20T23:30:12.424Z,13.23
2023-05-20T23:32:41.933Z,12.30
2023-05-20T23:35:11.683Z,12.50
2023-05-20T23:37:41.030Z,12.10
2023-05-20T23:40:10.187Z,12.37
2023-05-20T23:42:38.183Z,13.73
2023-05-20T23:45:07.347Z,12.20
2023-05-20T23:47:36.513Z,11.77
2023-05-20T23:50:06.514Z,12.53
2023-05-20T23:52:34.674Z,13.10
2023-05-20T23:55:02.661Z,12.37
2023-05-20T23:57:30.729Z,13.00
2023-05-20T23:59:58.756Z,12.33
